Time;durP1;ratioP1;P1;durP2;ratioP2;P2;SDS_P1;SDS_P2;PMS_P1;PMS_P2;Temp;Humidity;BMP_temperature;BMP_pressure;BME280_temperature;BME280_humidity;BME280_pressure;Samples;Min_cycle;Max_cycle;Signal;HPM_P1;HPM_P2
2023/04/09 00:03:37;;;;;;;46.90;32.70;;;;;;;6.16;100.00;101116.73;180814;1262;43947;-88
2023/04/09 00:07:41;;;;;;;46.40;32.00;;;;;;;6.12;100.00;101116.42;180649;1262;43795;-86
2023/04/09 00:11:47;;;;;;;50.10;29.60;;;;;;;6.13;100.00;101119.71;180660;1262;43941;-87
2023/04/09 00:15:51;;;;;;;54.60;33.90;;;;;;;6.07;100.00;101121.92;180565;1262;44132;-87
2023/04/09 00:19:55;;;;;;;52.20;31.30;;;;;;;6.11;100.00;101120.51;180677;1262;60710;-86
2023/04/09 00:24:00;;;;;;;68.70;36.10;;;;;;;6.11;100.00;101117.67;180718;1262;44311;-87
2023/04/09 00:28:03;;;;;;;50.80;31.00;;;;;;;6.10;100.00;101115.27;180794;1262;43771;-87
2023/04/09 00:32:09;;;;;;;49.00;34.10;;;;;;;6.11;100.00;101114.00;180560;1262;44308;-87
2023/04/09 00:36:13;;;;;;;51.80;32.30;;;;;;;6.08;100.00;101110.08;180640;1262;43879;-87
2023/04/09 00:40:16;;;;;;;54.70;36.00;;;;;;;6.10;100.00;101111.94;180661;1262;59262;-88
2023/04/09 00:49:45;;;;;;;52.10;34.10;;;;;;;6.03;100.00;101118.10;180412;1260;45675;-89
2023/04/09 01:27:12;;;;;;;49.40;31.00;;;;;;;5.89;100.00;101125.80;177195;1261;58182;-90
2023/04/09 01:40:56;;;;;;;58.40;34.80;;;;;;;5.78;100.00;101132.45;164540;1261;44276;-89
2023/04/09 01:45:02;;;;;;;47.90;31.60;;;;;;;5.84;100.00;101127.95;180863;1262;44084;-90
2023/04/09 02:07:15;;;;;;;38.30;28.90;;;;;;;5.93;100.00;101126.83;180848;1265;43837;-89
2023/04/09 02:11:22;;;;;;;46.60;30.10;;;;;;;5.88;100.00;101129.02;180771;1264;58369;-89
2023/04/09 02:15:30;;;;;;;40.40;30.00;;;;;;;5.82;100.00;101128.39;180576;1264;43756;-89
2023/04/09 02:24:19;;;;;;;46.30;28.10;;;;;;;5.75;100.00;101134.04;180715;1266;44146;-90
2023/04/09 02:47:26;;;;;;;41.40;29.00;;;;;;;5.91;100.00;101155.98;181031;1262;43797;-89
2023/04/09 02:51:39;;;;;;;42.20;30.80;;;;;;;5.99;100.00;101163.53;181008;1262;43901;-90
2023/04/09 03:01:13;;;;;;;48.00;32.20;;;;;;;6.38;100.00;101163.41;181128;1262;54440;-91
2023/04/09 03:05:42;;;;;;;42.20;28.10;;;;;;;6.55;100.00;101168.19;180962;1263;43939;-90
2023/04/09 03:09:45;;;;;;;44.60;30.50;;;;;;;6.64;100.00;101167.20;180676;1264;44190;-89
2023/04/09 03:13:49;;;;;;;42.00;29.00;;;;;;;6.67;100.00;101160.02;180698;1266;43910;-90
2023/04/09 03:18:13;;;;;;;36.90;26.90;;;;;;;6.40;100.00;101158.73;181006;1263;58426;-90
2023/04/09 03:31:37;;;;;;;43.60;29.60;;;;;;;6.12;100.00;101153.58;180869;1265;43891;-90
2023/04/09 03:35:42;;;;;;;40.50;29.80;;;;;;;6.11;100.00;101153.63;180784;1265;44012;-88
2023/04/09 03:55:19;;;;;;;45.00;29.60;;;;;;;6.20;100.00;101153.56;163631;1255;45026;31
2023/04/09 04:15:00;;;;;;;;;;;;;;;;;;;;;
2023/04/09 04:38:18;;;;;;;46.70;30.10;;;;;;;6.80;100.00;101170.30;178679;1258;45131;31
2023/04/09 04:47:32;;;;;;;44.30;30.60;;;;;;;6.81;100.00;101166.53;164313;1261;44466;-90
2023/04/09 04:51:40;;;;;;;44.70;32.10;;;;;;;6.82;100.00;101167.67;180867;1264;60253;-89
2023/04/09 04:55:48;;;;;;;48.90;31.50;;;;;;;6.83;100.00;101170.63;181020;1263;43864;-89
2023/04/09 05:00:03;;;;;;;43.60;29.00;;;;;;;6.72;99.99;101176.48;173253;1261;44316;-89
2023/04/09 05:08:36;;;;;;;38.20;28.00;;;;;;;6.35;100.00;101184.49;143045;1291;44453;-89
2023/04/09 05:17:08;;;;;;;50.90;33.30;;;;;;;6.23;100.00;101180.85;175167;1260;44408;-89
2023/04/09 05:21:22;;;;;;;36.60;29.00;;;;;;;6.21;100.00;101179.71;181096;1262;43770;-90
2023/04/09 05:25:28;;;;;;;44.70;31.90;;;;;;;6.27;100.00;101179.63;180943;1263;44071;-91
2023/04/09 05:29:34;;;;;;;44.90;30.90;;;;;;;6.32;100.00;101179.05;181034;1262;43810;-91
2023/04/09 05:33:39;;;;;;;48.40;35.00;;;;;;;6.29;100.00;101180.08;181129;1262;58479;-90
2023/04/09 05:37:44;;;;;;;50.40;33.90;;;;;;;6.32;100.00;101176.91;180977;1262;43828;-90
2023/04/09 05:42:11;;;;;;;44.50;30.60;;;;;;;6.29;100.00;101178.80;181060;1262;44209;-90
2023/04/09 05:46:36;;;;;;;42.30;28.40;;;;;;;6.45;100.00;101175.20;181132;1262;43699;-91
2023/04/09 05:50:51;;;;;;;54.60;34.10;;;;;;;6.60;100.00;101174.63;180914;1264;46104;-90
2023/04/09 05:54:58;;;;;;;42.40;29.70;;;;;;;6.68;100.00;101174.05;180884;1263;59935;-90
2023/04/09 05:59:02;;;;;;;41.60;31.20;;;;;;;6.75;100.00;101171.05;180802;1264;44134;-91
2023/04/09 06:03:07;;;;;;;34.20;24.30;;;;;;;6.69;100.00;101171.72;180799;1262;43819;-91
2023/04/09 06:07:14;;;;;;;40.70;30.90;;;;;;;6.61;100.00;101174.42;180961;1264;43959;-90
2023/04/09 06:11:27;;;;;;;42.90;29.90;;;;;;;6.70;100.00;101171.64;180931;1263;43858;-91
2023/04/09 06:15:31;;;;;;;45.30;30.90;;;;;;;6.71;100.00;101178.84;180787;1263;60470;-90
2023/04/09 06:19:34;;;;;;;57.20;37.60;;;;;;;6.67;100.00;101179.06;180880;1263;44023;-90
2023/04/09 06:23:39;;;;;;;51.30;31.00;;;;;;;6.67;100.00;101179.20;180881;1263;43794;-90
2023/04/09 06:27:58;;;;;;;;;;;;;;;6.73;100.00;101175.55;181057;1263;43835;-91
2023/04/09 07:03:54;;;;;;;55.30;34.70;;;;;;;7.16;100.00;101185.35;176526;1261;44788;-86
2023/04/09 07:07:59;;;;;;;50.00;33.30;;;;;;;7.19;100.00;101182.73;180672;1263;44192;-87
2023/04/09 07:12:04;;;;;;;44.80;34.00;;;;;;;7.29;99.96;101181.64;180878;1263;44151;-90
2023/04/09 07:16:08;;;;;;;45.70;30.00;;;;;;;7.37;100.00;101178.27;180758;1262;43865;-89
2023/04/09 07:20:11;;;;;;;42.60;29.30;;;;;;;7.42;100.00;101174.25;180638;1263;57836;-89
2023/04/09 07:24:14;;;;;;;46.80;32.10;;;;;;;7.46;100.00;101177.05;180814;1264;43847;-88
2023/04/09 07:28:17;;;;;;;50.70;32.20;;;;;;;7.54;100.00;101179.40;180740;1264;46825;-89
2023/04/09 07:32:24;;;;;;;52.50;32.40;;;;;;;7.70;100.00;101183.30;180912;1263;43951;-91
2023/04/09 07:36:55;;;;;;;41.00;28.10;;;;;;;7.71;100.00;101182.92;180928;1264;44088;-91
2023/04/09 07:41:02;;;;;;;52.60;32.70;;;;;;;7.71;100.00;101183.28;180894;1264;59570;-90
2023/04/09 07:45:08;;;;;;;51.30;33.40;;;;;;;7.80;100.00;101185.40;181045;1263;46627;-90
2023/04/09 07:49:13;;;;;;;48.50;30.10;;;;;;;7.88;99.83;101192.77;180837;1263;43887;-90
2023/04/09 07:53:17;;;;;;;49.20;35.30;;;;;;;7.83;99.26;101184.74;180945;1263;43720;-89
2023/04/09 07:57:23;;;;;;;52.90;31.20;;;;;;;7.89;99.85;101182.81;180711;1263;44162;-90
2023/04/09 08:01:29;;;;;;;40.80;27.50;;;;;;;7.95;99.49;101187.05;180812;1263;59727;-89
2023/04/09 08:05:32;;;;;;;48.30;28.40;;;;;;;7.97;99.75;101183.24;180240;1264;771345;-89
2023/04/09 08:09:36;;;;;;;49.40;35.30;;;;;;;8.16;100.00;101192.21;180680;1263;43870;-89
2023/04/09 08:13:39;;;;;;;46.20;33.60;;;;;;;8.40;99.95;101205.73;180692;1263;43932;-90
2023/04/09 08:17:44;;;;;;;48.60;34.90;;;;;;;8.46;97.80;101206.41;180681;1263;50690;-89
2023/04/09 08:21:48;;;;;;;36.80;27.60;;;;;;;8.56;96.63;101206.08;180846;1264;59825;-89
2023/04/09 08:25:51;;;;;;;36.50;24.40;;;;;;;8.38;96.31;101204.60;180582;1263;43632;-89
2023/04/09 08:29:55;;;;;;;49.20;29.10;;;;;;;8.35;96.45;101199.44;180670;1263;44783;-88
2023/04/09 08:33:58;;;;;;;49.00;37.00;;;;;;;8.44;96.88;101200.20;180631;1263;44122;-89
2023/04/09 08:38:02;;;;;;;44.90;29.70;;;;;;;8.50;97.23;101197.77;180829;1263;43822;-87
2023/04/09 08:42:06;;;;;;;45.50;34.40;;;;;;;8.46;98.31;101193.21;180719;1263;59651;-87
2023/04/09 08:46:09;;;;;;;51.20;33.90;;;;;;;8.56;98.83;101189.63;180642;1262;44067;-86
2023/04/09 08:50:13;;;;;;;44.20;31.80;;;;;;;8.58;99.07;101188.65;180725;1263;43796;-87
2023/04/09 08:54:18;;;;;;;54.70;36.00;;;;;;;8.59;99.56;101190.67;180556;1263;44475;-85
2023/04/09 08:58:22;;;;;;;50.80;36.70;;;;;;;8.70;98.96;101194.12;180744;1263;43801;-88
2023/04/09 09:02:25;;;;;;;46.80;31.50;;;;;;;8.82;98.17;101201.00;180700;1263;59247;-86
2023/04/09 09:06:31;;;;;;;46.70;33.60;;;;;;;8.89;97.61;101197.74;180643;1263;43843;-87
2023/04/09 09:10:44;;;;;;;57.10;35.80;;;;;;;9.01;97.06;101190.89;180447;1263;44047;-87
2023/04/09 09:14:47;;;;;;;52.80;36.60;;;;;;;9.15;97.73;101188.45;180720;1263;43939;-85
2023/04/09 09:18:51;;;;;;;59.30;43.10;;;;;;;9.21;97.31;101183.64;180801;1263;43789;-86
2023/04/09 09:22:56;;;;;;;53.40;40.10;;;;;;;9.26;97.93;101188.48;180465;1263;59471;-85
2023/04/09 09:27:01;;;;;;;50.30;35.30;;;;;;;9.34;97.33;101198.27;180667;1263;43807;-90
2023/04/09 09:31:09;;;;;;;55.30;38.50;;;;;;;9.34;96.27;101202.67;180353;1264;44047;-85
2023/04/09 09:35:13;;;;;;;48.30;36.30;;;;;;;9.36;96.65;101201.67;180629;1262;44030;-90
2023/04/09 09:39:17;;;;;;;49.70;37.60;;;;;;;9.40;95.93;101205.29;180588;1263;43734;-90
2023/04/09 09:43:21;;;;;;;58.40;40.00;;;;;;;9.56;95.07;101199.71;180586;1264;59246;-89
2023/04/09 09:47:26;;;;;;;62.50;38.00;;;;;;;9.67;94.64;101197.06;180439;1263;44502;-87
2023/04/09 09:51:31;;;;;;;53.20;39.40;;;;;;;9.90;94.49;101186.95;180604;1263;43823;-86
2023/04/09 09:55:40;;;;;;;45.90;30.80;;;;;;;10.01;93.33;101177.52;180485;1263;44082;-86
2023/04/09 09:59:52;;;;;;;43.10;32.90;;;;;;;10.15;94.11;101171.71;180318;1264;43879;-85
2023/04/09 10:03:58;;;;;;;46.80;34.40;;;;;;;10.31;92.16;101173.31;180285;1262;59587;-85
2023/04/09 10:08:03;;;;;;;;;;;;;;;10.58;92.77;101176.02;180457;1262;44368;-84
2023/04/09 10:12:09;;;;;;;43.20;29.60;;;;;;;10.80;91.31;101177.14;180586;1264;43852;-84
2023/04/09 10:16:13;;;;;;;52.40;30.10;;;;;;;10.95;89.60;101181.47;180426;1263;43960;-84
2023/04/09 10:20:34;;;;;;;37.50;27.30;;;;;;;11.13;90.54;101176.84;180524;1264;43981;-86
2023/04/09 10:24:37;;;;;;;40.30;29.40;;;;;;;11.23;88.93;101170.82;180368;1263;56960;-85
2023/04/09 10:28:42;;;;;;;38.60;28.60;;;;;;;11.23;89.23;101166.23;180497;1263;44238;-86
2023/04/09 10:32:45;;;;;;;32.10;25.10;;;;;;;11.14;88.31;101166.13;180518;1263;43928;-86
2023/04/09 10:36:54;;;;;;;47.20;29.10;;;;;;;11.05;89.24;101164.48;180649;1263;44400;-88
2023/04/09 10:40:57;;;;;;;44.10;29.50;;;;;;;10.99;90.42;101159.91;180715;1262;43817;-88
2023/04/09 10:45:15;;;;;;;39.10;28.10;;;;;;;10.86;91.12;101156.17;180655;1263;59668;-89
2023/04/09 10:49:21;;;;;;;42.40;29.70;;;;;;;10.78;91.94;101150.30;180605;1263;43930;-87
2023/04/09 10:53:25;;;;;;;42.30;28.90;;;;;;;10.75;91.20;101148.36;180578;1262;43858;-88
2023/04/09 10:57:28;;;;;;;33.90;26.60;;;;;;;10.75;91.82;101147.49;180509;1263;44069;-87
2023/04/09 11:01:31;;;;;;;40.20;28.40;;;;;;;10.73;91.97;101141.64;180644;1263;44141;-89
2023/04/09 11:05:40;;;;;;;41.40;26.30;;;;;;;10.63;91.75;101141.02;180563;1263;59845;-90
2023/04/09 11:10:12;;;;;;;34.00;25.00;;;;;;;10.54;93.50;101133.35;180365;1267;43957;-87
2023/04/09 11:14:19;;;;;;;33.50;25.60;;;;;;;10.50;94.37;101141.36;180154;1267;43916;-88
2023/04/09 11:18:26;;;;;;;29.60;24.70;;;;;;;10.53;94.28;101148.29;180318;1266;45798;-89
2023/04/09 11:22:29;;;;;;;35.40;26.00;;;;;;;10.47;94.19;101147.23;180327;1265;44019;-89
2023/04/09 11:26:36;;;;;;;39.70;26.20;;;;;;;10.44;96.13;101149.95;180398;1267;59647;-89
2023/04/09 11:30:40;;;;;;;35.70;24.40;;;;;;;10.33;96.19;101156.66;180172;1266;43835;-88
2023/04/09 11:34:43;;;;;;;33.80;25.20;;;;;;;10.26;96.69;101156.03;180475;1266;43761;-87
2023/04/09 11:38:48;;;;;;;36.80;24.10;;;;;;;10.30;97.18;101153.52;180404;1265;44010;-86
2023/04/09 11:42:54;;;;;;;38.10;27.00;;;;;;;10.28;98.91;101151.66;180148;1267;43902;-87
2023/04/09 11:46:58;;;;;;;37.60;28.20;;;;;;;10.47;100.00;101147.13;180070;1266;60912;-88
2023/04/09 11:51:02;;;;;;;41.00;27.20;;;;;;;10.54;99.03;101148.35;180263;1266;44061;-88
2023/04/09 11:55:07;;;;;;;39.30;26.60;;;;;;;10.57;97.51;101148.18;180243;1266;44097;-88
2023/04/09 11:59:13;;;;;;;38.10;25.60;;;;;;;10.62;98.90;101150.70;180344;1266;44429;-88
2023/04/09 12:03:16;;;;;;;;;;;;;;;10.61;98.32;101150.25;180205;1265;44049;-87
2023/04/09 12:07:20;;;;;;;35.50;24.60;;;;;;;10.63;99.68;101149.89;180444;1265;57741;-88
2023/04/09 12:11:28;;;;;;;30.80;24.50;;;;;;;10.59;99.27;101151.44;180291;1266;43848;-88
2023/04/09 12:15:34;;;;;;;35.10;25.60;;;;;;;10.57;98.90;101153.31;180359;1265;44287;-88
2023/04/09 12:19:37;;;;;;;35.60;25.60;;;;;;;10.52;99.36;101158.61;180336;1267;43826;-88
2023/04/09 12:23:40;;;;;;;36.00;26.60;;;;;;;10.59;100.00;101158.70;180050;1265;44131;-88
2023/04/09 12:27:43;;;;;;;35.00;27.60;;;;;;;10.72;100.00;101151.96;180290;1266;58355;-87
2023/04/09 12:31:46;;;;;;;39.10;28.90;;;;;;;10.77;99.37;101150.59;180425;1266;44084;-87
2023/04/09 12:35:49;;;;;;;31.30;25.80;;;;;;;10.82;98.80;101151.11;180319;1266;43777;-87
2023/04/09 12:39:53;;;;;;;47.00;33.40;;;;;;;10.87;98.19;101151.27;180337;1267;44096;-87
2023/04/09 12:43:56;;;;;;;38.20;32.50;;;;;;;10.89;97.36;101152.38;180292;1265;44272;-87
2023/04/09 12:47:59;;;;;;;34.10;24.90;;;;;;;10.89;96.28;101150.25;180342;1266;59608;-87
2023/04/09 12:52:02;;;;;;;35.90;27.00;;;;;;;10.85;96.61;101145.39;180260;1266;44215;-87
2023/04/09 12:56:05;;;;;;;43.10;30.20;;;;;;;10.80;96.69;101148.09;180294;1266;43761;-87
2023/04/09 13:00:09;;;;;;;37.40;25.70;;;;;;;10.76;96.79;101154.36;180312;1265;44005;-88
2023/04/09 13:04:12;;;;;;;32.20;26.20;;;;;;;10.75;96.91;101152.29;180408;1266;44054;-88
2023/04/09 13:08:16;;;;;;;45.90;33.20;;;;;;;10.75;96.43;101146.28;180410;1265;58271;-87
2023/04/09 13:12:20;;;;;;;38.00;25.50;;;;;;;10.69;97.33;101139.55;180394;1266;43780;-88
2023/04/09 13:16:23;;;;;;;35.70;26.20;;;;;;;10.66;99.49;101135.36;180511;1266;44167;-87
2023/04/09 13:20:26;;;;;;;38.80;28.80;;;;;;;10.61;100.00;101134.61;180309;1266;44194;-88
2023/04/09 13:24:30;;;;;;;39.00;27.90;;;;;;;10.61;100.00;101135.36;180261;1267;43740;-87
2023/04/09 13:28:33;;;;;;;40.50;29.10;;;;;;;10.61;100.00;101139.40;180431;1266;58287;-88
2023/04/09 13:32:36;;;;;;;39.70;27.90;;;;;;;10.62;100.00;101144.66;180351;1265;43813;-88
2023/04/09 13:36:39;;;;;;;46.90;33.50;;;;;;;10.56;100.00;101146.46;180290;1266;44485;-88
2023/04/09 13:40:42;;;;;;;46.30;30.00;;;;;;;10.57;100.00;101138.63;180295;1267;43716;-88
2023/04/09 13:44:45;;;;;;;39.10;28.40;;;;;;;10.50;100.00;101141.56;180390;1266;43839;-88
2023/04/09 13:48:49;;;;;;;45.10;32.40;;;;;;;10.47;100.00;101135.07;180285;1265;57897;-88
2023/04/09 13:52:52;;;;;;;41.20;29.80;;;;;;;10.53;100.00;101129.29;180388;1266;43672;-88
2023/04/09 13:56:55;;;;;;;44.80;31.10;;;;;;;10.49;100.00;101133.33;180241;1267;44367;-87
2023/04/09 14:00:59;;;;;;;43.90;33.90;;;;;;;10.45;100.00;101131.25;180315;1267;43911;-88
2023/04/09 14:05:05;;;;;;;43.80;31.40;;;;;;;10.39;100.00;101133.08;180158;1266;43857;-88
2023/04/09 14:09:09;;;;;;;49.90;32.10;;;;;;;10.42;100.00;101130.20;180309;1265;59257;-87
2023/04/09 14:13:13;;;;;;;43.80;31.60;;;;;;;10.45;100.00;101130.55;180474;1266;43935;-87
2023/04/09 14:17:16;;;;;;;57.10;33.20;;;;;;;10.54;100.00;101127.65;180422;1266;44062;-87
2023/04/09 14:21:19;;;;;;;49.90;32.70;;;;;;;10.58;100.00;101126.50;180191;1266;43944;-88
2023/04/09 14:25:22;;;;;;;61.70;41.10;;;;;;;10.62;100.00;101129.61;180289;1265;43796;-88
2023/04/09 14:29:25;;;;;;;57.10;41.20;;;;;;;10.69;100.00;101126.27;180252;1266;59249;-88
2023/04/09 14:33:29;;;;;;;45.20;32.30;;;;;;;10.75;100.00;101131.16;180139;1265;44248;-87
2023/04/09 14:37:32;;;;;;;43.30;34.60;;;;;;;10.89;100.00;101130.41;180325;1265;43875;-88
2023/04/09 14:41:36;;;;;;;46.00;33.90;;;;;;;11.07;100.00;101133.42;180321;1265;44329;-88
2023/04/09 14:45:39;;;;;;;46.30;32.10;;;;;;;11.22;100.00;101131.45;180358;1266;44008;-88
2023/04/09 14:49:42;;;;;;;64.30;31.90;;;;;;;11.27;100.00;101135.39;180397;1266;58306;-88
2023/04/09 14:53:46;;;;;;;43.60;30.50;;;;;;;11.28;100.00;101130.88;180195;1266;43924;-89
2023/04/09 14:57:49;;;;;;;43.10;31.90;;;;;;;11.25;100.00;101131.95;180531;1266;43802;-88
2023/04/09 15:01:52;;;;;;;51.60;35.40;;;;;;;11.24;100.00;101126.36;180225;1265;43859;-88
2023/04/09 15:05:55;;;;;;;43.50;31.80;;;;;;;11.29;100.00;101125.09;180311;1266;43782;-88
2023/04/09 15:09:59;;;;;;;36.10;28.60;;;;;;;11.36;100.00;101124.11;180523;1266;59090;-88
2023/04/09 15:14:02;;;;;;;43.60;31.20;;;;;;;11.42;100.00;101124.41;180256;1265;43851;-88
2023/04/09 15:18:05;;;;;;;39.70;29.60;;;;;;;11.48;100.00;101122.72;180293;1267;43924;-88
2023/04/09 15:22:08;;;;;;;38.70;30.10;;;;;;;11.51;99.49;101124.98;180254;1266;43978;-88
2023/04/09 15:26:11;;;;;;;38.70;25.20;;;;;;;11.50;98.76;101123.83;180446;1265;43930;-88
2023/04/09 15:30:14;;;;;;;38.30;26.20;;;;;;;11.51;99.06;101119.30;180472;1266;59267;-88
2023/04/09 15:34:17;;;;;;;39.80;31.40;;;;;;;11.55;98.64;101123.83;180571;1266;43862;-88
2023/04/09 15:38:20;;;;;;;33.00;26.70;;;;;;;11.56;97.96;101123.49;180274;1265;44559;-88
2023/04/09 15:42:24;;;;;;;32.40;24.90;;;;;;;11.52;97.63;101125.07;180277;1265;43916;-88
2023/04/09 15:46:27;;;;;;;39.00;26.90;;;;;;;11.42;98.18;101118.73;180439;1265;44028;-88
2023/04/09 15:50:30;;;;;;;38.70;30.30;;;;;;;11.39;99.28;101118.05;180160;1265;60786;-88
2023/04/09 15:54:33;;;;;;;40.40;28.40;;;;;;;11.43;99.87;101118.66;180267;1266;43899;-88
2023/04/09 15:58:37;;;;;;;30.40;24.00;;;;;;;11.39;100.00;101118.76;180356;1265;43836;-88
2023/04/09 16:02:43;;;;;;;44.00;28.90;;;;;;;11.29;100.00;101118.52;180586;1266;44061;-87
2023/04/09 16:06:46;;;;;;;40.90;29.30;;;;;;;11.24;100.00;101118.05;180522;1266;44243;-88
2023/04/09 16:10:50;;;;;;;32.60;25.80;;;;;;;11.22;100.00;101114.77;180230;1265;59677;-88
2023/04/09 16:14:54;;;;;;;34.90;24.50;;;;;;;11.19;100.00;101113.92;180123;1266;47622;-89
2023/04/09 16:18:59;;;;;;;35.70;25.70;;;;;;;11.15;100.00;101109.77;180464;1265;44399;-88
2023/04/09 16:23:02;;;;;;;39.20;27.50;;;;;;;11.15;100.00;101112.05;180487;1266;43777;-88
2023/04/09 16:27:05;;;;;;;30.10;22.90;;;;;;;11.16;100.00;101115.56;180460;1267;44086;-88
2023/04/09 16:31:08;;;;;;;38.60;26.30;;;;;;;11.15;100.00;101109.41;180291;1266;59849;-88
2023/04/09 16:35:11;;;;;;;35.70;28.10;;;;;;;11.19;100.00;101112.15;180432;1266;43829;-88
2023/04/09 16:39:18;;;;;;;42.30;28.00;;;;;;;11.21;100.00;101104.95;180368;1266;43976;-88
2023/04/09 16:43:21;;;;;;;36.60;26.80;;;;;;;11.20;100.00;101102.70;180451;1267;44239;-88
2023/04/09 16:47:24;;;;;;;31.30;23.70;;;;;;;11.18;100.00;101103.13;180452;1265;44180;-88
2023/04/09 16:51:28;;;;;;;34.20;27.30;;;;;;;11.14;100.00;101103.42;180436;1267;60630;-88
2023/04/09 16:55:31;;;;;;;33.20;25.50;;;;;;;11.08;100.00;101102.64;180219;1266;47334;-88
2023/04/09 16:59:34;;;;;;;33.90;25.90;;;;;;;11.06;100.00;101104.05;180201;1265;44184;-88
2023/04/09 17:03:37;;;;;;;35.40;25.40;;;;;;;11.05;100.00;101104.45;180182;1267;44053;-88
2023/04/09 17:07:41;;;;;;;41.70;30.70;;;;;;;10.99;100.00;101105.21;180555;1267;44065;-88
2023/04/09 17:11:45;;;;;;;30.80;23.20;;;;;;;10.95;100.00;101106.91;180641;1266;58299;-88
2023/04/09 17:15:48;;;;;;;36.70;28.10;;;;;;;10.93;100.00;101107.96;180521;1265;44047;-88
2023/04/09 17:19:51;;;;;;;46.70;36.20;;;;;;;10.95;100.00;101103.73;180341;1266;44056;-88
2023/04/09 17:23:54;;;;;;;53.50;40.50;;;;;;;10.93;100.00;101101.21;180425;1266;44235;-88
2023/04/09 17:28:00;;;;;;;40.80;31.50;;;;;;;10.88;100.00;101102.63;180479;1265;44085;-88
2023/04/09 17:32:04;;;;;;;70.60;46.60;;;;;;;10.83;100.00;101106.70;180346;1267;57518;-88
2023/04/09 17:36:07;;;;;;;59.00;43.50;;;;;;;10.81;100.00;101112.32;180414;1266;44093;-88
2023/04/09 17:40:13;;;;;;;48.80;35.20;;;;;;;10.77;100.00;101120.75;180298;1266;44156;-88
2023/04/09 17:44:16;;;;;;;66.00;35.90;;;;;;;10.72;100.00;101124.08;180489;1265;44048;-88
2023/04/09 17:48:19;;;;;;;56.50;37.60;;;;;;;10.66;100.00;101125.74;180438;1267;44066;-88
2023/04/09 17:52:22;;;;;;;48.20;37.30;;;;;;;10.60;100.00;101129.21;180467;1266;57968;-88
2023/04/09 17:56:26;;;;;;;49.10;35.60;;;;;;;10.55;100.00;101129.36;180511;1265;44140;-88
2023/04/09 18:00:30;;;;;;;47.90;32.80;;;;;;;10.48;100.00;101133.16;180468;1266;43958;-88
2023/04/09 18:04:34;;;;;;;49.90;35.00;;;;;;;10.39;100.00;101135.89;180204;1267;44087;-88
2023/04/09 18:08:39;;;;;;;44.40;30.40;;;;;;;10.31;100.00;101137.14;180259;1266;44064;-88
2023/04/09 18:12:42;;;;;;;52.20;32.80;;;;;;;10.23;100.00;101139.27;180322;1266;59307;-88
2023/04/09 18:16:46;;;;;;;44.50;33.80;;;;;;;10.18;100.00;101138.89;180597;1266;44393;-88
2023/04/09 18:20:51;;;;;;;42.30;31.00;;;;;;;10.22;100.00;101139.16;180369;1268;44051;-86
2023/04/09 18:24:54;;;;;;;42.00;32.10;;;;;;;10.24;100.00;101148.45;180317;1266;44159;-87
2023/04/09 18:28:57;;;;;;;50.00;37.20;;;;;;;10.36;100.00;101150.79;180501;1266;47293;-90
2023/04/09 18:33:03;;;;;;;44.90;32.10;;;;;;;10.49;100.00;101154.80;180932;1262;59675;-87
2023/04/09 18:37:07;;;;;;;42.20;30.70;;;;;;;10.59;100.00;101158.19;180906;1261;44347;-90
2023/04/09 18:41:15;;;;;;;45.00;33.50;;;;;;;10.67;100.00;101159.23;180908;1261;52014;-90
2023/04/09 18:45:19;;;;;;;44.60;31.90;;;;;;;10.65;100.00;101165.71;180961;1262;44018;-89
2023/04/09 18:49:25;;;;;;;43.00;29.50;;;;;;;10.64;100.00;101171.34;180969;1262;43848;-90
2023/04/09 19:02:22;;;;;;;38.10;27.70;;;;;;;10.46;100.00;101176.80;180783;1264;43903;-90
2023/04/09 19:06:26;;;;;;;41.30;30.70;;;;;;;10.40;100.00;101176.77;180538;1268;44150;-91
2023/04/09 19:10:31;;;;;;;60.50;37.40;;;;;;;10.39;100.00;101173.66;180664;1263;43933;-91
2023/04/09 19:14:35;;;;;;;41.90;31.50;;;;;;;10.43;100.00;101170.59;180697;1264;58184;-90
2023/04/09 19:18:39;;;;;;;43.20;31.90;;;;;;;10.47;100.00;101173.70;180535;1266;44145;-89
2023/04/09 19:22:52;;;;;;;46.40;34.70;;;;;;;10.51;100.00;101172.90;180612;1264;44694;-91
2023/04/09 19:26:56;;;;;;;39.40;30.60;;;;;;;10.58;100.00;101178.64;180538;1264;43979;-89
2023/04/09 19:35:23;;;;;;;47.60;34.10;;;;;;;10.58;100.00;101180.42;178351;1262;57901;-88
2023/04/09 19:39:28;;;;;;;47.80;31.00;;;;;;;10.61;100.00;101181.13;181000;1262;43853;-87
2023/04/09 20:06:37;;;;;;;43.50;30.80;;;;;;;10.75;100.00;101187.09;175701;1260;6497201;-89
2023/04/09 20:10:45;;;;;;;46.80;34.20;;;;;;;10.75;100.00;101190.24;180800;1261;43894;-88
2023/04/09 20:14:48;;;;;;;50.20;33.90;;;;;;;10.75;100.00;101192.78;180862;1262;44073;-89
2023/04/09 20:18:52;;;;;;;43.00;32.30;;;;;;;10.72;100.00;101191.56;180786;1262;43874;-89
2023/04/09 20:22:56;;;;;;;44.40;32.60;;;;;;;10.65;100.00;101196.06;180832;1260;44478;-89
2023/04/09 20:27:00;;;;;;;46.30;33.60;;;;;;;10.51;100.00;101195.10;180775;1262;59605;-89
2023/04/09 20:31:05;;;;;;;44.40;29.30;;;;;;;10.39;100.00;101196.16;180813;1262;44128;-89
2023/04/09 20:35:09;;;;;;;50.70;35.20;;;;;;;10.42;100.00;101194.60;180985;1261;43993;-89
2023/04/09 20:39:14;;;;;;;53.90;36.80;;;;;;;10.52;100.00;101188.43;180897;1261;43845;-86
2023/04/09 20:43:19;;;;;;;48.70;34.70;;;;;;;10.60;100.00;101187.38;180910;1261;43894;-89
2023/04/09 20:47:23;;;;;;;46.50;31.90;;;;;;;10.62;100.00;101187.59;180751;1262;59482;-89
2023/04/09 20:51:29;;;;;;;49.60;34.90;;;;;;;10.72;100.00;101186.41;180800;1262;43701;-88
2023/04/09 20:55:34;;;;;;;44.10;34.40;;;;;;;10.76;100.00;101186.10;180782;1261;43881;-88
2023/04/09 20:59:37;;;;;;;45.40;33.60;;;;;;;10.75;100.00;101186.55;180868;1261;44368;-88
2023/04/09 21:03:40;;;;;;;46.00;33.10;;;;;;;10.73;100.00;101187.89;180794;1262;44422;-87
2023/04/09 21:07:44;;;;;;;47.80;33.60;;;;;;;10.80;100.00;101186.38;180966;1261;58340;-89
2023/04/09 21:11:47;;;;;;;48.10;33.60;;;;;;;10.76;100.00;101187.03;180861;1262;44225;-90
2023/04/09 21:15:50;;;;;;;58.00;40.60;;;;;;;10.79;100.00;101183.08;180785;1262;44090;-87
2023/04/09 21:19:55;;;;;;;65.50;47.80;;;;;;;10.87;100.00;101184.47;180830;1261;44416;-87
2023/04/09 21:23:58;;;;;;;79.80;55.60;;;;;;;10.89;100.00;101180.98;180822;1261;43978;-86
2023/04/09 21:28:01;;;;;;;67.90;49.70;;;;;;;10.85;100.00;101180.34;180924;1262;59166;-88
2023/04/09 21:32:06;;;;;;;95.10;64.20;;;;;;;10.75;100.00;101183.02;180716;1262;46727;-87
2023/04/09 21:36:09;;;;;;;91.10;60.50;;;;;;;10.75;100.00;101185.33;180865;1261;43824;-88
2023/04/09 21:40:13;;;;;;;110.30;75.80;;;;;;;10.70;100.00;101189.35;180735;1261;43902;-87
2023/04/09 21:44:19;;;;;;;180.80;110.40;;;;;;;10.53;100.00;101187.30;180655;1262;44682;-86
2023/04/09 21:48:23;;;;;;;202.70;124.40;;;;;;;10.37;100.00;101187.42;180813;1262;59715;-86
2023/04/09 21:52:26;;;;;;;136.60;83.90;;;;;;;10.34;100.00;101181.79;180770;1264;43968;-86
2023/04/09 21:56:29;;;;;;;143.00;90.10;;;;;;;10.39;100.00;101183.95;180760;1261;44245;-85
2023/04/09 22:00:32;;;;;;;93.50;63.30;;;;;;;10.40;100.00;101180.52;180808;1261;43935;-84
2023/04/09 22:04:35;;;;;;;81.20;55.70;;;;;;;10.37;100.00;101178.59;180707;1262;44033;-84
2023/04/09 22:08:38;;;;;;;100.60;64.40;;;;;;;10.44;100.00;101180.41;180856;1261;60008;-84
2023/04/09 22:12:57;;;;;;;94.50;63.80;;;;;;;10.53;100.00;101179.52;180772;1261;44110;-85
2023/04/09 22:17:01;;;;;;;68.60;50.50;;;;;;;10.57;100.00;101181.33;180701;1261;44033;-84
2023/04/09 22:21:05;;;;;;;63.10;45.20;;;;;;;10.57;100.00;101178.67;180896;1262;43987;-85